Time;durP1;ratioP1;P1;durP2;ratioP2;P2;SDS_P1;SDS_P2;PMS_P1;PMS_P2;Temp;Humidity;BMP_temperature;BMP_pressure;BME280_temperature;BME280_humidity;BME280_pressure;Samples;Min_cycle;Max_cycle;Signal;HPM_P1;HPM_P2
2022/03/20 00:00:41;;;;;;;;;;;;;;;17.04;33.63;103064.78;5076833;28;1902;-60
2022/03/20 00:03:15;;;;;;;;;;;;;;;17.63;32.61;103059.06;5076169;28;874;-60
2022/03/20 00:05:40;;;;;;;;;;;;;;;17.97;31.93;103062.34;5076784;28;828;-58
2022/03/20 00:08:09;;;;;;;;;;;;;;;17.95;31.84;103059.00;5076335;28;852;-60
2022/03/20 00:10:38;;;;;;;;;;;;;;;17.82;32.24;103050.81;5076148;28;857;-59
2022/03/20 00:13:08;;;;;;;;;;;;;;;17.31;33.05;103061.84;5076366;28;841;-60
2022/03/20 00:15:33;;;;;;;;;;;;;;;17.26;33.13;103048.78;5076180;28;1201;-60
2022/03/20 00:17:59;;;;;;;;;;;;;;;17.06;33.50;103059.06;5076912;28;750;-59
2022/03/20 00:20:24;;;;;;;;;;;;;;;17.09;33.58;103059.44;5076614;28;1905;-59
2022/03/20 00:22:49;;;;;;;;;;;;;;;17.38;32.79;103059.03;5076724;28;904;-60
2022/03/20 00:25:16;;;;;;;;;;;;;;;17.83;32.12;103049.78;5075738;28;853;-60
2022/03/20 00:27:42;;;;;;;;;;;;;;;17.97;31.92;103054.09;5076625;28;864;-60
2022/03/20 00:30:08;;;;;;;;;;;;;;;17.95;32.05;103056.25;5076746;28;829;-60
2022/03/20 00:32:33;;;;;;;;;;;;;;;17.61;32.26;103045.53;5076211;28;730;-61
2022/03/20 00:35:00;;;;;;;;;;;;;;;17.37;32.68;103041.69;5076209;28;932;-61
2022/03/20 00:37:26;;;;;;;;;;;;;;;17.10;33.55;103049.31;5075830;28;903;-60
2022/03/20 00:39:52;;;;;;;;;;;;;;;17.14;33.48;103050.53;5076528;28;1909;-60
2022/03/20 00:42:17;;;;;;;;;;;;;;;16.96;33.79;103037.53;5076081;28;959;-60
2022/03/20 00:44:43;;;;;;;;;;;;;;;16.86;33.88;103045.41;5076270;28;793;-60
2022/03/20 00:47:08;;;;;;;;;;;;;;;17.41;33.01;103048.41;5075846;28;825;-60
2022/03/20 00:49:34;;;;;;;;;;;;;;;17.81;32.00;103050.00;5075579;28;1033;-60
2022/03/20 00:52:01;;;;;;;;;;;;;;;18.15;31.44;103041.44;5076437;28;836;-60
2022/03/20 00:54:26;;;;;;;;;;;;;;;17.67;32.42;103048.41;5076208;28;829;-60
2022/03/20 00:56:52;;;;;;;;;;;;;;;17.41;32.87;103053.91;5075914;28;864;-60
2022/03/20 00:59:18;;;;;;;;;;;;;;;17.01;33.60;103054.22;5075938;28;1998;-60
2022/03/20 01:01:44;;;;;;;;;;;;;;;16.91;33.86;103051.09;5075965;28;898;-60
2022/03/20 01:04:10;;;;;;;;;;;;;;;16.94;33.60;103045.16;5075304;28;919;-59
2022/03/20 01:06:35;;;;;;;;;;;;;;;17.35;32.94;103054.81;5075783;28;808;-60
2022/03/20 01:09:01;;;;;;;;;;;;;;;17.72;32.21;103054.09;5069562;28;782;-60
2022/03/20 01:11:26;;;;;;;;;;;;;;;17.86;32.07;103052.06;5075988;28;777;-60
2022/03/20 01:13:55;;;;;;;;;;;;;;;17.70;32.22;103042.50;5076261;28;762;-60
2022/03/20 01:16:21;;;;;;;;;;;;;;;17.58;32.46;103045.13;5075376;28;998;-60
2022/03/20 01:18:46;;;;;;;;;;;;;;;17.16;33.39;103051.16;5078464;28;835;-60
2022/03/20 01:21:12;;;;;;;;;;;;;;;16.98;33.57;103054.63;5079725;28;1980;-60
2022/03/20 01:23:39;;;;;;;;;;;;;;;16.86;33.92;103054.47;5079311;28;769;-60
2022/03/20 01:26:04;;;;;;;;;;;;;;;16.89;33.74;103055.97;5079460;28;836;-59
2022/03/20 01:28:29;;;;;;;;;;;;;;;17.61;32.52;103041.91;5079008;28;881;-59
2022/03/20 01:30:55;;;;;;;;;;;;;;;17.84;32.26;103040.41;5078801;28;826;-60
2022/03/20 01:33:21;;;;;;;;;;;;;;;17.64;32.43;103044.19;5078891;28;841;-60
2022/03/20 01:35:46;;;;;;;;;;;;;;;17.14;33.01;103034.03;5079596;28;819;-61
2022/03/20 01:38:18;;;;;;;;;;;;;;;16.96;33.72;103032.06;5079144;28;800;-60
2022/03/20 01:40:43;;;;;;;;;;;;;;;16.95;33.57;103030.34;5078725;28;1901;-61
2022/03/20 01:43:09;;;;;;;;;;;;;;;17.52;32.51;103026.78;5079332;28;846;-60
2022/03/20 01:45:34;;;;;;;;;;;;;;;17.54;32.65;103028.22;5078863;28;757;-59
2022/03/20 01:48:00;;;;;;;;;;;;;;;17.83;31.91;103031.34;5078463;28;847;-60
2022/03/20 01:50:26;;;;;;;;;;;;;;;17.81;32.16;103029.88;5079291;28;766;-61
2022/03/20 01:52:52;;;;;;;;;;;;;;;17.30;33.02;103034.56;5079065;28;872;-60
2022/03/20 01:55:18;;;;;;;;;;;;;;;17.33;32.99;103032.19;5078574;28;847;-60
2022/03/20 01:57:44;;;;;;;;;;;;;;;17.05;33.30;103019.72;5079025;28;906;-60
2022/03/20 02:00:10;;;;;;;;;;;;;;;17.03;33.40;103021.84;5078725;28;1914;-61
2022/03/20 02:02:39;;;;;;;;;;;;;;;17.21;33.19;103034.84;5078665;28;812;-61
2022/03/20 02:05:09;;;;;;;;;;;;;;;17.70;32.20;103026.81;5078913;28;830;-60
2022/03/20 02:07:35;;;;;;;;;;;;;;;17.86;31.85;103025.38;5078264;28;821;-60
2022/03/20 02:10:01;;;;;;;;;;;;;;;17.71;32.27;103034.00;5078815;28;721;-60
2022/03/20 02:12:28;;;;;;;;;;;;;;;17.17;32.93;103028.09;5078497;28;927;-59
2022/03/20 02:14:53;;;;;;;;;;;;;;;17.01;33.49;103031.38;5085364;28;1217;-60
2022/03/20 02:17:19;;;;;;;;;;;;;;;16.79;33.71;103023.44;5098234;28;735;-61
2022/03/20 02:19:45;;;;;;;;;;;;;;;16.86;33.80;103029.75;5112215;27;1978;-60
2022/03/20 02:22:11;;;;;;;;;;;;;;;17.49;32.51;103028.06;5103606;28;931;-60
2022/03/20 02:24:41;;;;;;;;;;;;;;;17.82;32.05;103037.06;5078440;28;1647;-60
2022/03/20 02:27:15;;;;;;;;;;;;;;;17.71;31.91;103031.25;5078018;28;813;-60
2022/03/20 02:29:41;;;;;;;;;;;;;;;17.18;32.69;103035.28;5076834;28;860;-59
2022/03/20 02:32:07;;;;;;;;;;;;;;;16.94;33.58;103034.16;5078026;28;845;-59
2022/03/20 02:34:33;;;;;;;;;;;;;;;16.87;33.65;103034.19;5077852;28;1025;-60
2022/03/20 02:36:58;;;;;;;;;;;;;;;17.14;33.03;103038.69;5078000;28;802;-59
2022/03/20 02:39:24;;;;;;;;;;;;;;;17.52;32.60;103040.53;5078375;28;1898;-60
2022/03/20 02:41:51;;;;;;;;;;;;;;;17.94;31.80;103054.56;5078009;28;894;-59
2022/03/20 02:44:17;;;;;;;;;;;;;;;17.29;32.78;103052.94;5077713;28;1000;-59
2022/03/20 02:46:42;;;;;;;;;;;;;;;17.07;33.26;103060.75;5077956;28;844;-59
2022/03/20 02:49:08;;;;;;;;;;;;;;;16.78;33.72;103057.47;5077503;28;890;-60
2022/03/20 02:51:35;;;;;;;;;;;;;;;17.17;33.06;103052.84;5078029;28;1427;-59
2022/03/20 02:54:04;;;;;;;;;;;;;;;17.88;32.03;103055.41;5078204;28;780;-60
2022/03/20 02:56:32;;;;;;;;;;;;;;;17.85;31.67;103050.38;5077504;28;829;-60
2022/03/20 02:58:58;;;;;;;;;;;;;;;17.32;32.45;103040.66;5076781;28;910;-60
2022/03/20 03:01:24;;;;;;;;;;;;;;;17.31;32.46;103047.25;5077560;28;1914;-60
2022/03/20 03:03:49;;;;;;;;;;;;;;;16.91;33.43;103045.59;5077618;28;859;-61
2022/03/20 03:06:15;;;;;;;;;;;;;;;16.93;33.43;103041.56;5077402;28;925;-60
2022/03/20 03:11:24;;;;;;;;;;;;;;;17.76;32.05;103047.91;5089633;28;772;-60
2022/03/20 03:13:50;;;;;;;;;;;;;;;17.50;32.20;103056.41;5096783;28;816;-61
2022/03/20 03:16:15;;;;;;;;;;;;;;;17.18;32.92;103046.28;5096677;28;1052;-60
2022/03/20 03:18:46;;;;;;;;;;;;;;;16.92;33.36;103052.78;5087216;28;739;-60
2022/03/20 03:21:12;;;;;;;;;;;;;;;16.87;33.32;103063.56;5077063;28;1980;-60
2022/03/20 03:23:38;;;;;;;;;;;;;;;17.01;33.35;103067.97;5076928;28;923;-59
2022/03/20 03:26:04;;;;;;;;;;;;;;;17.63;31.88;103059.06;5077445;28;782;-60
2022/03/20 03:28:34;;;;;;;;;;;;;;;17.81;31.65;103055.50;5076874;28;847;-61
2022/03/20 03:31:00;;;;;;;;;;;;;;;17.47;32.34;103056.84;5077611;28;872;-60
2022/03/20 03:33:25;;;;;;;;;;;;;;;17.00;33.14;103066.28;5077113;28;765;-60
2022/03/20 03:35:54;;;;;;;;;;;;;;;16.93;33.36;103074.56;5109559;27;869;-61
2022/03/20 03:38:21;;;;;;;;;;;;;;;16.71;33.66;103075.91;5076630;28;833;-59
2022/03/20 03:40:47;;;;;;;;;;;;;;;17.22;32.71;103071.41;5076465;28;1913;-59
2022/03/20 03:43:14;;;;;;;;;;;;;;;17.49;32.17;103069.31;5076371;28;800;-59
2022/03/20 03:45:40;;;;;;;;;;;;;;;17.79;31.89;103075.00;5077079;28;842;-61
2022/03/20 03:48:05;;;;;;;;;;;;;;;17.81;31.82;103072.03;5076974;28;840;-62
2022/03/20 03:50:31;;;;;;;;;;;;;;;17.21;32.62;103069.75;5076121;28;891;-61
2022/03/20 03:52:56;;;;;;;;;;;;;;;16.98;33.27;103068.38;5076614;28;1068;-61
2022/03/20 03:55:22;;;;;;;;;;;;;;;16.96;33.34;103080.66;5076993;28;915;-62
2022/03/20 03:57:48;;;;;;;;;;;;;;;17.13;32.88;103075.50;5076472;28;871;-61
2022/03/20 04:00:14;;;;;;;;;;;;;;;17.72;31.88;103063.19;5076399;28;1909;-61
2022/03/20 04:02:44;;;;;;;;;;;;;;;17.84;31.48;103063.31;5076075;28;756;-61
2022/03/20 04:05:09;;;;;;;;;;;;;;;17.35;32.56;103068.56;5076640;28;868;-61
2022/03/20 04:07:35;;;;;;;;;;;;;;;16.96;33.16;103054.03;5076552;28;774;-59
2022/03/20 04:10:02;;;;;;;;;;;;;;;16.92;33.11;103069.28;5076648;28;827;-60
2022/03/20 04:12:28;;;;;;;;;;;;;;;17.06;33.13;103070.88;5076519;28;749;-60
2022/03/20 04:14:54;;;;;;;;;;;;;;;17.48;32.24;103061.28;5076101;28;1111;-60
2022/03/20 04:17:19;;;;;;;;;;;;;;;18.09;31.33;103071.56;5076661;28;861;-59
2022/03/20 04:19:45;;;;;;;;;;;;;;;17.84;31.35;103066.06;5075818;28;1962;-58
2022/03/20 04:22:11;;;;;;;;;;;;;;;17.31;32.41;103072.00;5095695;28;816;-59
2022/03/20 04:24:36;;;;;;;;;;;;;;;17.08;32.97;103068.75;5095825;28;911;-59
2022/03/20 04:27:02;;;;;;;;;;;;;;;16.93;33.18;103065.47;5091151;28;808;-59
2022/03/20 04:29:28;;;;;;;;;;;;;;;17.14;32.83;103055.19;5076272;28;805;-59
2022/03/20 04:31:54;;;;;;;;;;;;;;;17.55;32.16;103046.41;5076095;28;905;-59
2022/03/20 04:34:20;;;;;;;;;;;;;;;17.90;31.40;103056.03;5076441;28;859;-60
2022/03/20 04:36:46;;;;;;;;;;;;;;;17.59;31.72;103039.38;5076281;28;793;-59
2022/03/20 04:39:11;;;;;;;;;;;;;;;17.08;32.65;103049.53;5076125;28;1906;-59
2022/03/20 04:41:36;;;;;;;;;;;;;;;17.04;32.57;103062.03;5076240;28;978;-58
2022/03/20 04:44:02;;;;;;;;;;;;;;;16.98;32.96;103067.56;5076175;28;805;-62
2022/03/20 04:46:27;;;;;;;;;;;;;;;17.20;32.28;103074.38;5076077;28;813;-59
2022/03/20 04:59:49;;;;;;;;;;;;;;;16.75;32.69;103069.75;5079930;28;1971;-57
2022/03/20 05:02:14;;;;;;;;;;;;;;;16.86;32.81;103075.63;5079870;28;989;-59
2022/03/20 05:04:40;;;;;;;;;;;;;;;17.13;32.29;103072.75;5079600;28;872;-60
2022/03/20 05:07:06;;;;;;;;;;;;;;;17.48;31.56;103073.13;5079402;28;844;-60
2022/03/20 05:15:04;;;;;;;;;;;;;;;17.12;32.16;103079.31;5080014;28;1036;-61
2022/03/20 05:17:29;;;;;;;;;;;;;;;16.84;32.46;103086.00;5079605;28;825;-60
2022/03/20 05:19:54;;;;;;;;;;;;;;;16.89;32.70;103091.72;5078504;28;1901;-61
2022/03/20 05:22:20;;;;;;;;;;;;;;;17.65;31.35;103095.41;5079860;28;820;-60
2022/03/20 05:24:46;;;;;;;;;;;;;;;17.75;31.25;103086.66;5080282;28;780;-60
2022/03/20 05:27:11;;;;;;;;;;;;;;;17.23;31.96;103092.34;5079542;28;761;-61
2022/03/20 05:29:38;;;;;;;;;;;;;;;16.89;32.43;103088.97;5079610;28;758;-61
2022/03/20 05:32:04;;;;;;;;;;;;;;;16.89;32.60;103086.22;5079342;28;1569;-61
2022/03/20 05:34:30;;;;;;;;;;;;;;;17.17;32.18;103076.75;5110871;28;985;-60
2022/03/20 05:36:58;;;;;;;;;;;;;;;17.69;31.30;103088.41;5072889;28;782;-61
2022/03/20 05:39:24;;;;;;;;;;;;;;;17.83;31.10;103096.56;5079007;28;1910;-59
2022/03/20 05:41:51;;;;;;;;;;;;;;;17.44;31.39;103089.22;5111218;27;1057;-61
2022/03/20 05:44:20;;;;;;;;;;;;;;;16.90;32.49;103091.47;5079084;28;813;-61
2022/03/20 05:46:46;;;;;;;;;;;;;;;16.91;32.54;103097.81;5098750;28;809;-60
2022/03/20 05:49:12;;;;;;;;;;;;;;;16.79;32.84;103088.53;5097252;28;763;-61
2022/03/20 05:51:37;;;;;;;;;;;;;;;17.01;32.19;103100.09;5098355;28;872;-61
2022/03/20 05:54:03;;;;;;;;;;;;;;;18.49;29.95;103102.47;5098191;28;803;-60
2022/03/20 05:59:12;;;;;;;;;;;;;;;19.42;28.38;103098.47;5073297;28;1980;-60
2022/03/20 06:01:39;;;;;;;;;;;;;;;19.07;28.91;103110.22;5078768;28;769;-60
2022/03/20 06:04:05;;;;;;;;;;;;;;;18.48;29.75;103107.13;5078309;28;892;-60
2022/03/20 06:06:31;;;;;;;;;;;;;;;17.99;30.52;103107.00;5079024;28;828;-60
2022/03/20 06:08:57;;;;;;;;;;;;;;;17.60;31.26;103101.59;5077999;28;841;-60
2022/03/20 06:11:22;;;;;;;;;;;;;;;17.39;31.73;103101.97;5078564;28;805;-60
2022/03/20 06:13:48;;;;;;;;;;;;;;;17.05;32.32;103112.34;5078954;28;745;-60
2022/03/20 06:16:17;;;;;;;;;;;;;;;17.35;31.76;103115.34;5078232;28;1024;-60
2022/03/20 06:18:43;;;;;;;;;;;;;;;17.24;31.73;103116.03;5077972;28;864;-60
2022/03/20 06:21:12;;;;;;;;;;;;;;;17.42;31.72;103107.88;5078442;28;1910;-59
2022/03/20 06:23:38;;;;;;;;;;;;;;;17.32;31.79;103107.53;5077863;28;935;-59
2022/03/20 06:26:04;;;;;;;;;;;;;;;17.84;31.07;103117.47;5078454;28;838;-59
2022/03/20 06:28:29;;;;;;;;;;;;;;;18.09;30.48;103110.09;5078695;28;785;-59
2022/03/20 06:30:55;;;;;;;;;;;;;;;18.09;30.58;103118.34;5078190;28;765;-60
2022/03/20 06:33:20;;;;;;;;;;;;;;;18.17;30.34;103119.13;5077878;28;1458;-60
2022/03/20 06:35:46;;;;;;;;;;;;;;;17.61;31.30;103121.69;5078145;28;789;-60
2022/03/20 06:38:12;;;;;;;;;;;;;;;17.49;31.53;103123.47;5078258;28;817;-60
2022/03/20 06:40:37;;;;;;;;;;;;;;;17.18;32.10;103128.75;5078274;28;1976;-60
2022/03/20 06:43:03;;;;;;;;;;;;;;;16.97;32.41;103123.56;5078110;28;888;-60
2022/03/20 06:45:28;;;;;;;;;;;;;;;17.15;31.85;103112.69;5078477;28;849;-60
2022/03/20 06:47:54;;;;;;;;;;;;;;;17.64;31.31;103115.75;5077315;28;836;-59
2022/03/20 06:50:19;;;;;;;;;;;;;;;18.08;30.50;103115.84;5078065;28;844;-59
2022/03/20 06:52:45;;;;;;;;;;;;;;;18.20;30.16;103113.16;5078082;28;789;-60
2022/03/20 06:55:15;;;;;;;;;;;;;;;17.73;30.91;103116.31;5078161;28;1146;-59
2022/03/20 06:57:41;;;;;;;;;;;;;;;17.52;31.36;103128.56;5077780;28;1396;-57
2022/03/20 07:00:07;;;;;;;;;;;;;;;17.18;31.90;103123.28;5077384;28;1905;-57
2022/03/20 07:02:42;;;;;;;;;;;;;;;17.12;31.85;103128.78;5075992;28;960;-60
2022/03/20 07:05:08;;;;;;;;;;;;;;;17.55;31.32;103128.94;5078041;28;900;-59
2022/03/20 07:07:36;;;;;;;;;;;;;;;17.78;30.90;103138.50;5077813;28;757;-59
2022/03/20 07:10:02;;;;;;;;;;;;;;;17.49;31.33;103120.72;5076309;28;843;-57
2022/03/20 07:12:27;;;;;;;;;;;;;;;17.20;31.71;103123.03;5077707;28;865;-57
2022/03/20 07:14:54;;;;;;;;;;;;;;;17.16;31.83;103133.63;5076571;28;1024;-60
2022/03/20 07:17:20;;;;;;;;;;;;;;;17.46;31.46;103135.78;5077293;28;881;-60
2022/03/20 07:19:46;;;;;;;;;;;;;;;17.85;31.00;103125.53;5076875;28;1972;-58
2022/03/20 07:22:14;;;;;;;;;;;;;;;18.07;30.38;103125.97;5077397;28;1446;-59
2022/03/20 07:24:41;;;;;;;;;;;;;;;18.09;30.31;103121.09;5077746;28;781;-61
2022/03/20 07:29:50;;;;;;;;;;;;;;;17.41;31.51;103111.69;5077027;28;866;-59
2022/03/20 07:32:16;;;;;;;;;;;;;;;17.21;32.08;103127.50;5077062;28;833;-58
2022/03/20 07:34:44;;;;;;;;;;;;;;;17.36;31.65;103113.41;5093303;28;872;-59
2022/03/20 07:37:09;;;;;;;;;;;;;;;17.39;31.56;103116.56;5096691;28;836;-60
2022/03/20 07:39:35;;;;;;;;;;;;;;;17.34;31.77;103121.88;5084189;28;1951;-59
2022/03/20 07:42:00;;;;;;;;;;;;;;;17.56;31.20;103116.03;5076861;28;877;-58
2022/03/20 07:44:29;;;;;;;;;;;;;;;17.94;30.80;103117.88;5077172;28;832;-60
2022/03/20 07:46:55;;;;;;;;;;;;;;;18.39;29.83;103120.38;5077220;28;765;-58
2022/03/20 07:49:20;;;;;;;;;;;;;;;18.09;30.24;103115.59;5076343;28;938;-60
2022/03/20 07:51:46;;;;;;;;;;;;;;;17.52;31.03;103121.13;5076382;28;1118;-58
2022/03/20 07:54:12;;;;;;;;;;;;;;;17.42;31.52;103118.88;5076632;28;833;-58
2022/03/20 07:56:37;;;;;;;;;;;;;;;17.32;31.55;103110.28;5076311;28;827;-59
2022/03/20 07:59:06;;;;;;;;;;;;;;;17.17;31.82;103101.50;5076725;28;778;-59
2022/03/20 08:01:34;;;;;;;;;;;;;;;17.68;30.79;103105.97;5076710;28;1983;-59
2022/03/20 08:04:00;;;;;;;;;;;;;;;18.03;30.28;103105.47;5075853;28;894;-57
2022/03/20 08:06:26;;;;;;;;;;;;;;;18.01;30.28;103102.13;5076998;28;820;-59
2022/03/20 08:08:52;;;;;;;;;;;;;;;18.09;29.99;103101.84;5076956;28;832;-59
2022/03/20 08:11:18;;;;;;;;;;;;;;;17.86;30.36;103090.59;5076448;28;868;-59
2022/03/20 08:13:44;;;;;;;;;;;;;;;17.42;30.88;103102.38;5076491;28;911;-59
2022/03/20 08:16:15;;;;;;;;;;;;;;;17.39;31.09;103097.31;5076282;28;988;-59
2022/03/20 08:18:42;;;;;;;;;;;;;;;17.25;31.35;103095.72;5075730;28;844;-59
2022/03/20 08:21:09;;;;;;;;;;;;;;;17.30;31.38;103098.66;5077154;28;1910;-59
2022/03/20 08:23:36;;;;;;;;;;;;;;;17.65;30.76;103106.44;5076318;28;856;-59
2022/03/20 08:26:01;;;;;;;;;;;;;;;17.98;30.09;103105.34;5076529;28;809;-59
2022/03/20 08:28:27;;;;;;;;;;;;;;;18.17;29.82;103097.09;5079621;28;801;-59
2022/03/20 08:30:52;;;;;;;;;;;;;;;18.14;29.88;103098.38;5093470;28;879;-59
2022/03/20 08:33:18;;;;;;;;;;;;;;;17.79;30.32;103108.03;5093365;28;765;-59
2022/03/20 08:35:44;;;;;;;;;;;;;;;17.27;31.11;103096.34;5080487;28;828;-59
2022/03/20 08:38:09;;;;;;;;;;;;;;;17.33;31.12;103100.94;5080981;28;853;-59
2022/03/20 08:40:35;;;;;;;;;;;;;;;17.09;31.41;103097.91;5080048;28;1972;-59
2022/03/20 08:43:04;;;;;;;;;;;;;;;17.82;30.32;103117.72;5080403;28;905;-59
2022/03/20 08:45:31;;;;;;;;;;;;;;;18.85;28.58;103100.75;5080020;28;815;-59
2022/03/20 08:47:57;;;;;;;;;;;;;;;18.33;29.52;103099.25;5079642;28;880;-60
2022/03/20 08:50:23;;;;;;;;;;;;;;;17.82;30.27;103105.88;5080629;28;795;-59
2022/03/20 08:52:48;;;;;;;;;;;;;;;17.47;30.78;103104.44;5080591;28;734;-59
2022/03/20 08:55:14;;;;;;;;;;;;;;;17.27;31.12;103121.91;5079308;28;880;-59
2022/03/20 08:57:40;;;;;;;;;;;;;;;16.85;31.63;103124.22;5080377;28;881;-59
2022/03/20 09:00:09;;;;;;;;;;;;;;;17.75;30.50;103111.44;5079461;28;1921;-61
2022/03/20 09:02:34;;;;;;;;;;;;;;;18.31;29.43;103104.13;5079701;28;1198;-60
2022/03/20 09:05:00;;;;;;;;;;;;;;;17.86;30.13;103107.94;5079196;28;1194;-59
2022/03/20 09:07:25;;;;;;;;;;;;;;;17.37;30.75;103082.94;5079629;28;1324;-59
2022/03/20 09:09:50;;;;;;;;;;;;;;;17.22;31.10;103101.66;5079448;28;875;-59
2022/03/20 09:12:16;;;;;;;;;;;;;;;17.20;31.09;103092.81;5079988;28;829;-59
2022/03/20 09:14:41;;;;;;;;;;;;;;;17.36;30.79;103084.03;5079588;28;1194;-59
2022/03/20 09:19:54;;;;;;;;;;;;;;;18.06;29.66;103091.28;5097533;28;1913;-59
2022/03/20 09:22:20;;;;;;;;;;;;;;;18.44;29.03;103084.72;5114742;27;780;-59
2022/03/20 09:24:46;;;;;;;;;;;;;;;18.36;29.27;103084.19;5079167;28;974;-59
2022/03/20 09:27:11;;;;;;;;;;;;;;;17.89;29.82;103081.88;5079340;28;908;-60
2022/03/20 09:29:37;;;;;;;;;;;;;;;17.51;30.70;103071.84;5079700;28;903;-59
2022/03/20 09:32:02;;;;;;;;;;;;;;;17.27;31.03;103068.84;5079947;28;1097;-58
2022/03/20 09:34:31;;;;;;;;;;;;;;;16.89;31.56;103062.31;5078671;28;894;-59
2022/03/20 09:36:56;;;;;;;;;;;;;;;17.50;30.64;103056.41;5080079;28;777;-59
2022/03/20 09:39:22;;;;;;;;;;;;;;;17.49;30.41;103058.31;5078751;28;1917;-59
2022/03/20 09:41:48;;;;;;;;;;;;;;;17.43;30.67;103054.56;5079335;28;916;-60
2022/03/20 09:44:15;;;;;;;;;;;;;;;17.32;30.79;103047.03;5079456;28;861;-59
2022/03/20 09:46:40;;;;;;;;;;;;;;;17.51;30.60;103056.16;5078890;28;762;-59
2022/03/20 09:49:09;;;;;;;;;;;;;;;17.45;30.79;103057.91;5110927;27;816;-59
2022/03/20 09:51:35;;;;;;;;;;;;;;;17.88;30.06;103055.41;5079350;28;925;-59
2022/03/20 09:54:00;;;;;;;;;;;;;;;18.32;29.30;103063.69;5079258;28;836;-59
2022/03/20 09:56:27;;;;;;;;;;;;;;;18.56;28.74;103045.38;5078999;28;842;-59
2022/03/20 09:58:52;;;;;;;;;;;;;;;18.45;28.88;103049.72;5079170;28;883;-59
2022/03/20 10:01:18;;;;;;;;;;;;;;;18.16;29.32;103065.13;5078992;28;1898;-59
2022/03/20 10:03:43;;;;;;;;;;;;;;;17.75;30.08;103053.63;5079014;28;776;-59
2022/03/20 10:06:14;;;;;;;;;;;;;;;17.40;30.66;103052.25;5078889;28;863;-59
2022/03/20 10:08:48;;;;;;;;;;;;;;;17.26;30.80;103057.00;5078738;28;745;-59
2022/03/20 10:11:14;;;;;;;;;;;;;;;17.02;31.14;103053.13;5111221;28;1552;-59
2022/03/20 10:13:39;;;;;;;;;;;;;;;17.72;30.09;103054.09;5078228;28;1046;-59
2022/03/20 10:16:25;;;;;;;;;;;;;;;17.59;30.32;103057.81;5110828;28;1033;-59
2022/03/20 10:18:51;;;;;;;;;;;;;;;17.21;30.94;103053.25;5078319;28;1595;-59
2022/03/20 10:21:19;;;;;;;;;;;;;;;16.96;31.24;103048.53;5111078;28;1902;-59
2022/03/20 10:23:46;;;;;;;;;;;;;;;16.83;31.58;103041.19;5109741;28;845;-59
2022/03/20 10:26:12;;;;;;;;;;;;;;;17.05;31.17;103044.44;5080041;28;948;-58
2022/03/20 10:28:38;;;;;;;;;;;;;;;17.57;30.12;103040.66;5111318;28;1492;-60
2022/03/20 10:31:04;;;;;;;;;;;;;;;17.83;29.72;103041.50;5078105;28;749;-60
2022/03/20 10:33:30;;;;;;;;;;;;;;;18.05;29.35;103030.94;5077882;28;865;-60
2022/03/20 10:36:08;;;;;;;;;;;;;;;18.08;29.52;103031.31;5078439;28;820;-59
2022/03/20 10:38:36;;;;;;;;;;;;;;;17.87;29.83;103021.56;5077831;28;819;-58
2022/03/20 10:41:01;;;;;;;;;;;;;;;17.49;30.54;103021.69;5078343;28;1964;-59
2022/03/20 10:43:27;;;;;;;;;;;;;;;17.34;30.85;103016.56;5078307;28;785;-59
2022/03/20 10:45:54;;;;;;;;;;;;;;;17.09;31.14;103020.94;5077262;28;832;-59
2022/03/20 10:48:46;;;;;;;;;;;;;;;17.27;30.87;103030.34;5077980;28;821;-59
2022/03/20 10:51:11;;;;;;;;;;;;;;;17.44;30.46;103012.22;5075509;28;1234;-61
2022/03/20 10:54:04;;;;;;;;;;;;;;;18.04;29.76;103002.56;5077702;28;825;-60
2022/03/20 10:56:29;;;;;;;;;;;;;;;18.55;28.68;102999.59;5066980;28;1436;-59
2022/03/20 10:58:54;;;;;;;;;;;;;;;18.49;29.02;103006.88;5077928;28;757;-60
2022/03/20 11:01:48;;;;;;;;;;;;;;;18.06;29.53;103003.19;5077530;28;1972;-59
2022/03/20 11:04:14;;;;;;;;;;;;;;;17.74;30.21;103002.41;5070416;28;2051;-59
2022/03/20 11:06:42;;;;;;;;;;;;;;;17.40;30.62;103000.00;5077392;28;1525;-56
2022/03/20 11:09:07;;;;;;;;;;;;;;;17.02;31.08;103008.31;5077220;28;793;-58
2022/03/20 11:11:33;;;;;;;;;;;;;;;17.23;30.89;102998.88;5077734;28;868;-59
2022/03/20 11:13:59;;;;;;;;;;;;;;;17.75;30.37;102996.72;5077260;28;826;-58
2022/03/20 11:16:25;;;;;;;;;;;;;;;18.54;28.75;102995.19;5076598;28;999;-58
2022/03/20 11:18:51;;;;;;;;;;;;;;;18.38;29.14;103002.97;5109977;27;910;-57
2022/03/20 11:21:17;;;;;;;;;;;;;;;17.89;29.61;102996.56;5076921;28;1967;-58
2022/03/20 11:23:42;;;;;;;;;;;;;;;17.51;30.60;102984.66;5076958;28;829;-58
2022/03/20 11:26:08;;;;;;;;;;;;;;;17.20;31.20;102988.31;5110060;27;876;-58
2022/03/20 11:28:42;;;;;;;;;;;;;;;17.26;30.84;102990.16;5108474;27;1131;-57
2022/03/20 11:31:07;;;;;;;;;;;;;;;17.46;30.66;102992.75;5096944;28;868;-58
2022/03/20 11:33:33;;;;;;;;;;;;;;;17.70;30.36;103002.03;5120433;27;1104;-59
2022/03/20 11:36:00;;;;;;;;;;;;;;;17.99;29.67;103004.31;5109567;27;974;-58
2022/03/20 11:38:25;;;;;;;;;;;;;;;18.07;29.64;102990.25;5077058;28;891;-57
2022/03/20 11:41:09;;;;;;;;;;;;;;;17.95;29.84;102999.28;5076973;28;1909;-59
2022/03/20 11:43:35;;;;;;;;;;;;;;;17.56;30.41;102981.25;5076772;28;821;-61
2022/03/20 11:46:15;;;;;;;;;;;;;;;17.20;31.13;103005.66;5076281;28;1110;-60
2022/03/20 11:48:41;;;;;;;;;;;;;;;17.36;30.49;102986.91;5076963;28;1226;-61
2022/03/20 11:51:07;;;;;;;;;;;;;;;17.33;30.99;102987.38;5077159;28;776;-60
2022/03/20 11:53:36;;;;;;;;;;;;;;;17.50;30.71;102991.25;5076967;28;804;-59
2022/03/20 11:56:01;;;;;;;;;;;;;;;17.37;30.59;103002.34;5076432;28;840;-60
2022/03/20 11:58:27;;;;;;;;;;;;;;;17.06;31.21;102999.41;5077235;28;821;-60
2022/03/20 12:01:05;;;;;;;;;;;;;;;17.19;31.00;102986.63;5076251;28;1989;-58
2022/03/20 12:03:32;;;;;;;;;;;;;;;17.33;30.98;102990.13;5071931;28;812;-59
2022/03/20 12:06:09;;;;;;;;;;;;;;;18.27;29.24;102999.13;5109382;28;772;-59
2022/03/20 12:08:53;;;;;;;;;;;;;;;17.89;30.02;102982.78;5076641;28;836;-60
2022/03/20 12:11:37;;;;;;;;;;;;;;;17.41;30.70;102982.41;5076836;28;802;-59
2022/03/20 12:14:16;;;;;;;;;;;;;;;17.15;31.26;102979.91;5076506;28;836;-59
2022/03/20 12:16:45;;;;;;;;;;;;;;;16.84;31.56;102978.81;5076588;28;1202;-59
2022/03/20 12:19:14;;;;;;;;;;;;;;;17.44;30.73;102967.38;5075915;28;894;-60
2022/03/20 12:21:59;;;;;;;;;;;;;;;17.68;30.46;102967.56;5076629;28;1909;-59
2022/03/20 12:24:31;;;;;;;;;;;;;;;17.21;31.07;102959.78;5076298;28;2130;-59
2022/03/20 12:26:56;;;;;;;;;;;;;;;17.15;31.09;102963.41;5076546;28;761;-59
2022/03/20 12:29:26;;;;;;;;;;;;;;;17.12;31.16;102972.94;5076321;28;797;-59
2022/03/20 12:32:17;;;;;;;;;;;;;;;17.93;30.10;102953.78;5076432;28;955;-59
2022/03/20 12:34:43;;;;;;;;;;;;;;;18.15;29.43;102967.09;5073975;28;1120;-60
2022/03/20 12:37:27;;;;;;;;;;;;;;;17.86;30.16;102966.75;5076221;28;729;-60
2022/03/20 12:39:54;;;;;;;;;;;;;;;17.24;31.01;102967.56;5076234;28;1910;-59
2022/03/20 12:42:23;;;;;;;;;;;;;;;17.28;31.07;102963.31;5076533;28;812;-59
2022/03/20 12:44:49;;;;;;;;;;;;;;;17.09;31.10;102960.47;5075569;28;798;-57
2022/03/20 12:47:15;;;;;;;;;;;;;;;17.21;31.23;102957.03;5076727;28;836;-62
2022/03/20 12:49:41;;;;;;;;;;;;;;;17.44;30.84;102956.38;5075964;28;1029;-58
2022/03/20 12:52:06;;;;;;;;;;;;;;;17.96;29.92;102958.81;5108073;28;1103;-59
2022/03/20 12:54:32;;;;;;;;;;;;;;;18.22;29.54;102934.78;5108684;28;854;-60
2022/03/20 12:57:01;;;;;;;;;;;;;;;18.35;29.28;102933.75;5076050;28;891;-60
2022/03/20 12:59:26;;;;;;;;;;;;;;;18.18;29.70;102928.06;5075238;28;1906;-58
2022/03/20 13:01:52;;;;;;;;;;;;;;;17.77;30.18;102925.75;5076470;28;769;-60
2022/03/20 13:04:19;;;;;;;;;;;;;;;17.51;30.76;102940.63;5075787;28;885;-60
2022/03/20 13:06:44;;;;;;;;;;;;;;;17.36;30.80;102929.16;5076006;28;770;-61
2022/03/20 13:09:12;;;;;;;;;;;;;;;17.16;31.02;102929.34;5076090;28;833;-60
2022/03/20 13:11:52;;;;;;;;;;;;;;;17.72;30.35;102913.75;5075670;28;896;-59
2022/03/20 13:14:18;;;;;;;;;;;;;;;17.69;30.23;102912.31;5077661;28;880;-60
2022/03/20 13:16:51;;;;;;;;;;;;;;;17.34;30.79;102910.13;5079574;28;1168;-59
2022/03/20 13:19:29;;;;;;;;;;;;;;;17.23;31.13;102908.13;5079604;28;841;-60
2022/03/20 13:21:54;;;;;;;;;;;;;;;17.04;31.47;102894.34;5079072;28;810;-59